Time;durP1;ratioP1;P1;durP2;ratioP2;P2;SDS_P1;SDS_P2;PMS_P1;PMS_P2;Temp;Humidity;BMP_temperature;BMP_pressure;BME280_temperature;BME280_humidity;BME280_pressure;Samples;Min_cycle;Max_cycle;Signal;HPM_P1;HPM_P2
2021/08/07 06:02:08;;;;;;;4.50;3.80;;;;;;;;;;5983215;23;20026;31
2021/08/07 06:04:34;;;;;;;6.78;4.68;;;;;;;;;;4861437;29;20503;-77
2021/08/07 06:06:59;;;;;;;6.68;3.40;;;;;;;;;;4864445;29;20076;-77
2021/08/07 06:09:25;;;;;;;4.43;3.55;;;;;;;;;;4864061;29;20044;-78
2021/08/07 06:11:50;;;;;;;4.32;3.30;;;;;;;;;;4864343;29;20412;-78
2021/08/07 06:14:16;;;;;;;5.43;3.80;;;;;;;;;;4864128;29;20026;-78
2021/08/07 06:16:41;;;;;;;5.32;3.70;;;;;;;;;;4864128;29;20108;-76
2021/08/07 06:19:07;;;;;;;6.38;3.63;;;;;;;;;;4864092;29;20043;-81
2021/08/07 06:21:32;;;;;;;4.45;3.50;;;;;;;;;;4863735;29;20094;-80
2021/08/07 06:23:58;;;;;;;4.15;3.75;;;;;;;;;;4862887;29;20143;-76
2021/08/07 06:26:25;;;;;;;5.70;3.40;;;;;;;;;;4878093;29;20385;-79
2021/08/07 06:28:51;;;;;;;6.90;3.42;;;;;;;;;;4863818;29;20048;-80
2021/08/07 06:31:16;;;;;;;3.78;3.28;;;;;;;;;;4863703;29;20030;-79
2021/08/07 06:33:42;;;;;;;4.53;3.50;;;;;;;;;;4862722;29;20039;-80
2021/08/07 06:36:08;;;;;;;5.47;3.35;;;;;;;;;;4863771;29;20039;-80
2021/08/07 06:38:33;;;;;;;4.88;3.55;;;;;;;;;;4863267;29;20034;-80
2021/08/07 06:40:59;;;;;;;4.25;3.20;;;;;;;;;;4863371;29;20037;-79
2021/08/07 06:43:25;;;;;;;6.00;3.20;;;;;;;;;;4863502;29;20093;-81
2021/08/07 06:45:50;;;;;;;5.05;3.25;;;;;;;;;;4863378;29;20497;-79
2021/08/07 06:48:16;;;;;;;4.70;3.60;;;;;;;;;;4863963;29;20112;-78
2021/08/07 06:50:42;;;;;;;5.50;3.55;;;;;;;;;;4863302;29;20046;-79
2021/08/07 06:53:07;;;;;;;5.93;3.40;;;;;;;;;;4863198;29;20082;-79
2021/08/07 06:55:33;;;;;;;5.13;3.50;;;;;;;;;;4863251;29;20034;-78
2021/08/07 06:57:58;;;;;;;6.05;3.63;;;;;;;;;;4863414;29;20041;-79
2021/08/07 07:00:24;;;;;;;4.25;3.28;;;;;;;;;;4862205;29;20385;-79
2021/08/07 07:02:49;;;;;;;4.72;3.50;;;;;;;;;;4862970;29;20046;-78
2021/08/07 07:05:15;;;;;;;5.18;3.90;;;;;;;;;;4863337;29;20473;-79
2021/08/07 07:07:40;;;;;;;6.25;3.40;;;;;;;;;;4863232;29;20029;-78
2021/08/07 07:10:11;;;;;;;5.07;3.60;;;;;;;;;;4862959;29;20025;-78
2021/08/07 07:12:37;;;;;;;6.38;3.55;;;;;;;;;;4847518;29;20066;-79
2021/08/07 07:15:03;;;;;;;4.43;3.58;;;;;;;;;;4827633;29;20042;-78
2021/08/07 07:17:29;;;;;;;6.88;4.05;;;;;;;;;;4843991;29;20034;-78
2021/08/07 07:19:55;;;;;;;5.63;3.90;;;;;;;;;;4844766;29;20044;-78
2021/08/07 07:22:21;;;;;;;4.97;3.75;;;;;;;;;;4844148;29;20053;-78
2021/08/07 07:24:47;;;;;;;7.85;4.40;;;;;;;;;;4844238;29;20058;-79
2021/08/07 07:27:12;;;;;;;7.10;4.03;;;;;;;;;;4844114;29;20037;-79
2021/08/07 07:29:39;;;;;;;4.70;3.30;;;;;;;;;;4844102;29;20026;-78
2021/08/07 07:32:05;;;;;;;6.25;3.85;;;;;;;;;;4844040;29;20097;-78
2021/08/07 07:34:31;;;;;;;4.50;3.75;;;;;;;;;;4843992;29;20091;-78
2021/08/07 07:36:57;;;;;;;6.38;3.28;;;;;;;;;;4844188;29;20026;-79
2021/08/07 07:39:22;;;;;;;6.05;3.90;;;;;;;;;;4844168;29;20113;-79
2021/08/07 07:41:48;;;;;;;4.07;3.38;;;;;;;;;;4827443;29;20057;-79
2021/08/07 07:44:13;;;;;;;4.30;3.50;;;;;;;;;;4843763;29;20050;-79
2021/08/07 07:46:38;;;;;;;7.28;4.18;;;;;;;;;;4843904;29;20033;-79
2021/08/07 07:49:04;;;;;;;7.40;4.90;;;;;;;;;;4844029;29;20033;-79
2021/08/07 07:51:29;;;;;;;7.70;4.15;;;;;;;;;;4843947;29;20034;-78
2021/08/07 07:53:55;;;;;;;5.68;4.10;;;;;;;;;;4827375;29;20038;-78
2021/08/07 07:56:20;;;;;;;4.57;3.60;;;;;;;;;;4827386;29;20063;-78
2021/08/07 07:58:46;;;;;;;6.47;4.10;;;;;;;;;;4843856;29;20496;-79
2021/08/07 08:01:11;;;;;;;4.70;4.13;;;;;;;;;;4843548;29;20030;-79
2021/08/07 08:03:36;;;;;;;4.38;3.78;;;;;;;;;;4843573;29;20493;-78
2021/08/07 08:06:02;;;;;;;5.15;3.85;;;;;;;;;;4843667;29;20525;-79
2021/08/07 08:08:27;;;;;;;4.88;3.72;;;;;;;;;;4843617;29;20040;-79
2021/08/07 08:10:53;;;;;;;6.32;4.53;;;;;;;;;;4843674;29;20109;-78
2021/08/07 08:13:20;;;;;;;4.43;3.67;;;;;;;;;;4827124;29;20025;-78
2021/08/07 08:15:46;;;;;;;4.10;3.70;;;;;;;;;;4843391;29;20035;-79
2021/08/07 08:18:12;;;;;;;4.68;3.63;;;;;;;;;;4843263;29;20029;-79
2021/08/07 08:20:38;;;;;;;5.13;4.03;;;;;;;;;;4843055;29;20026;-79
2021/08/07 08:23:05;;;;;;;6.57;4.13;;;;;;;;;;4826891;29;20053;-79
2021/08/07 08:25:30;;;;;;;4.40;3.70;;;;;;;;;;4843413;29;20101;-79
2021/08/07 08:27:56;;;;;;;5.07;3.72;;;;;;;;;;4843076;29;20060;-78
2021/08/07 08:30:22;;;;;;;8.48;3.75;;;;;;;;;;4843108;29;20030;-78
2021/08/07 08:32:48;;;;;;;4.40;3.80;;;;;;;;;;4853953;29;20033;-79
2021/08/07 08:35:14;;;;;;;6.60;3.80;;;;;;;;;;4853292;29;20389;-78
2021/08/07 08:37:40;;;;;;;6.25;3.78;;;;;;;;;;4860883;29;20109;-78
2021/08/07 08:40:06;;;;;;;5.03;3.90;;;;;;;;;;4859354;29;20029;-78
2021/08/07 08:42:32;;;;;;;5.70;3.63;;;;;;;;;;4860986;29;20505;-79
2021/08/07 08:44:57;;;;;;;4.10;3.17;;;;;;;;;;4861245;29;20065;-79
2021/08/07 08:47:24;;;;;;;4.00;3.35;;;;;;;;;;4861120;29;20478;-78
2021/08/07 08:49:51;;;;;;;5.53;3.63;;;;;;;;;;4861508;29;20401;-78
2021/08/07 08:52:20;;;;;;;5.05;3.20;;;;;;;;;;4861327;29;20032;-78
2021/08/07 08:54:46;;;;;;;4.63;2.97;;;;;;;;;;4861231;29;20433;-78
2021/08/07 08:57:11;;;;;;;3.67;3.35;;;;;;;;;;4860725;29;20029;-79
2021/08/07 08:59:37;;;;;;;3.53;3.20;;;;;;;;;;4861294;29;20033;-79
2021/08/07 09:02:02;;;;;;;4.78;3.30;;;;;;;;;;4861181;29;20077;-78
2021/08/07 09:04:28;;;;;;;4.95;3.13;;;;;;;;;;4860995;29;20090;-78
2021/08/07 09:06:53;;;;;;;3.85;3.38;;;;;;;;;;4861396;29;20022;-78
2021/08/07 09:09:40;;;;;;;5.13;4.07;;;;;;;;;;4861154;29;20393;-79
2021/08/07 09:12:07;;;;;;;3.63;2.88;;;;;;;;;;4860872;29;20033;-78
2021/08/07 09:14:36;;;;;;;4.28;3.05;;;;;;;;;;4861079;29;20071;-78
2021/08/07 09:17:08;;;;;;;5.60;3.22;;;;;;;;;;4861506;29;20030;-79
2021/08/07 09:19:39;;;;;;;4.82;3.58;;;;;;;;;;4861159;29;20021;-78
2021/08/07 09:22:09;;;;;;;3.90;2.95;;;;;;;;;;4861100;29;20638;-78
2021/08/07 09:24:52;;;;;;;4.72;3.15;;;;;;;;;;4859949;29;20489;-78
2021/08/07 09:27:41;;;;;;;4.82;3.22;;;;;;;;;;4859755;29;20030;-79
2021/08/07 09:30:09;;;;;;;;;;;;;;;;;;4861359;29;20109;-76
2021/08/07 09:32:51;;;;;;;5.32;3.22;;;;;;;;;;4860653;29;19916;-79
2021/08/07 09:35:23;;;;;;;5.93;3.55;;;;;;;;;;4853409;29;20034;-79
2021/08/07 09:38:18;;;;;;;4.85;3.38;;;;;;;;;;4857613;29;20441;-78
2021/08/07 09:40:49;;;;;;;4.53;3.03;;;;;;;;;;4860729;29;20085;-78
2021/08/07 09:43:22;;;;;;;4.55;3.10;;;;;;;;;;4859551;29;20029;-77
2021/08/07 09:45:58;;;;;;;4.50;3.20;;;;;;;;;;4860943;29;20037;-79
2021/08/07 09:48:33;;;;;;;5.78;3.20;;;;;;;;;;4860476;29;20052;-78
2021/08/07 09:50:59;;;;;;;4.63;3.30;;;;;;;;;;4860874;29;20422;-78
2021/08/07 09:53:27;;;;;;;4.72;3.28;;;;;;;;;;4860969;29;20108;-79
2021/08/07 09:55:59;;;;;;;5.60;3.40;;;;;;;;;;4860583;29;20093;-78
2021/08/07 09:58:24;;;;;;;4.47;3.50;;;;;;;;;;4860860;29;20053;-78
2021/08/07 10:00:49;;;;;;;3.22;2.92;;;;;;;;;;4860832;29;20060;-78
2021/08/07 10:03:21;;;;;;;5.45;3.40;;;;;;;;;;4860540;29;20124;-79
2021/08/07 10:05:47;;;;;;;5.93;3.38;;;;;;;;;;4860671;29;20060;-79
2021/08/07 10:08:14;;;;;;;4.55;3.33;;;;;;;;;;4860502;29;20053;-78
2021/08/07 10:10:40;;;;;;;5.47;3.72;;;;;;;;;;4863313;29;20026;-79
2021/08/07 10:13:08;;;;;;;4.88;3.25;;;;;;;;;;4864055;29;20029;-78
2021/08/07 10:15:35;;;;;;;4.75;3.70;;;;;;;;;;4864122;29;20523;-78
2021/08/07 10:18:02;;;;;;;5.57;3.90;;;;;;;;;;4863869;29;20025;-79
2021/08/07 10:20:28;;;;;;;6.50;3.70;;;;;;;;;;4863789;29;20557;-81
2021/08/07 10:22:55;;;;;;;4.45;4.03;;;;;;;;;;4863555;29;20041;-80
2021/08/07 10:25:22;;;;;;;7.38;4.78;;;;;;;;;;4864014;29;20036;-78
2021/08/07 10:27:50;;;;;;;4.32;3.60;;;;;;;;;;4863676;29;20158;-80
2021/08/07 10:30:16;;;;;;;4.90;3.53;;;;;;;;;;4863841;29;20029;-77
2021/08/07 10:32:45;;;;;;;7.45;4.00;;;;;;;;;;4863764;29;20036;-79
2021/08/07 10:35:12;;;;;;;7.75;4.32;;;;;;;;;;4863565;29;20116;-79
2021/08/07 10:37:39;;;;;;;5.40;3.50;;;;;;;;;;4862449;29;20038;-78
2021/08/07 10:40:07;;;;;;;4.10;3.70;;;;;;;;;;4864077;29;20030;-78
2021/08/07 10:42:34;;;;;;;8.35;3.80;;;;;;;;;;4846985;29;20084;-79
2021/08/07 10:45:02;;;;;;;6.70;5.00;;;;;;;;;;4863333;29;20052;-75
2021/08/07 10:47:46;;;;;;;3.92;3.50;;;;;;;;;;4846983;29;20354;-75
2021/08/07 10:50:34;;;;;;;5.57;4.78;;;;;;;;;;4863713;29;20033;-75
2021/08/07 10:53:22;;;;;;;6.18;4.53;;;;;;;;;;4863186;29;20041;-74
2021/08/07 10:55:54;;;;;;;5.27;3.87;;;;;;;;;;4862712;29;20549;-76
2021/08/07 10:58:40;;;;;;;5.75;3.70;;;;;;;;;;4863626;29;20051;-77
2021/08/07 11:01:26;;;;;;;7.15;3.80;;;;;;;;;;4863139;29;20032;-77
2021/08/07 11:04:00;;;;;;;5.65;3.40;;;;;;;;;;4862909;29;20397;-77
2021/08/07 11:06:44;;;;;;;4.63;3.65;;;;;;;;;;4862968;29;20484;-76
2021/08/07 11:09:20;;;;;;;4.97;3.50;;;;;;;;;;4863348;29;20030;-77
2021/08/07 11:11:48;;;;;;;5.38;3.88;;;;;;;;;;4863034;29;20029;-76
2021/08/07 11:14:26;;;;;;;6.68;3.97;;;;;;;;;;4862900;29;20034;-77
2021/08/07 11:17:06;;;;;;;4.75;3.78;;;;;;;;;;4863120;29;20040;-78
2021/08/07 11:20:05;;;;;;;5.90;3.58;;;;;;;;;;4862722;29;20040;-76
2021/08/07 11:22:44;;;;;;;10.82;3.85;;;;;;;;;;4862844;29;20074;-77
2021/08/07 11:25:21;;;;;;;4.43;3.67;;;;;;;;;;4862716;29;20025;-75
2021/08/07 11:27:55;;;;;;;4.43;3.42;;;;;;;;;;4857864;29;20030;-77
2021/08/07 11:30:20;;;;;;;6.43;3.65;;;;;;;;;;4852806;29;20377;-76
2021/08/07 11:32:58;;;;;;;5.68;3.60;;;;;;;;;;4858241;29;20063;-78
2021/08/07 11:38:12;;;;;;;5.43;3.13;;;;;;;;;;4858007;29;20041;-77
2021/08/07 11:40:38;;;;;;;4.53;3.22;;;;;;;;;;4862611;29;20050;-76
2021/08/07 11:43:04;;;;;;;4.75;3.05;;;;;;;;;;4862476;29;20058;-77
2021/08/07 11:45:31;;;;;;;5.18;3.60;;;;;;;;;;4862420;29;20112;-79
2021/08/07 11:47:57;;;;;;;3.70;3.00;;;;;;;;;;4862216;29;20029;-78
2021/08/07 11:50:24;;;;;;;5.35;3.15;;;;;;;;;;4862122;29;20116;-79
2021/08/07 11:52:50;;;;;;;3.78;3.17;;;;;;;;;;4862386;29;20038;-78
2021/08/07 11:55:16;;;;;;;3.95;3.13;;;;;;;;;;4853340;29;20387;-78
2021/08/07 11:57:41;;;;;;;4.38;3.50;;;;;;;;;;4851755;29;20084;-79
2021/08/07 12:00:21;;;;;;;4.30;3.38;;;;;;;;;;4856427;29;20389;-79
2021/08/07 12:02:56;;;;;;;3.40;3.00;;;;;;;;;;4850864;29;20060;-84
2021/08/07 12:05:22;;;;;;;6.53;3.33;;;;;;;;;;4851574;29;20390;-85
2021/08/07 12:07:58;;;;;;;4.53;3.30;;;;;;;;;;4857849;29;20034;-85
2021/08/07 12:10:24;;;;;;;6.90;3.25;;;;;;;;;;4856868;29;20029;-90
2021/08/07 12:12:49;;;;;;;5.90;3.10;;;;;;;;;;4864835;29;20090;-92
2021/08/07 12:15:15;;;;;;;5.85;3.25;;;;;;;;;;4862075;29;20138;-84
2021/08/07 12:17:45;;;;;;;3.42;2.90;;;;;;;;;;4861800;29;20030;-82
2021/08/07 12:20:11;;;;;;;6.45;3.30;;;;;;;;;;4861748;29;20036;-82
2021/08/07 12:22:58;;;;;;;5.15;2.97;;;;;;;;;;4861684;29;20029;-82
2021/08/07 12:25:23;;;;;;;4.30;3.45;;;;;;;;;;4861684;29;20044;-82
2021/08/07 12:28:15;;;;;;;4.15;2.95;;;;;;;;;;4861474;29;20026;-82
2021/08/07 12:30:52;;;;;;;5.28;2.97;;;;;;;;;;4861748;29;20030;-83
2021/08/07 12:33:24;;;;;;;3.90;2.70;;;;;;;;;;4860948;29;20029;-81
2021/08/07 12:35:50;;;;;;;6.55;3.20;;;;;;;;;;4861853;29;20041;-82
2021/08/07 12:38:24;;;;;;;26.65;7.63;;;;;;;;;;4861590;29;20503;-84
2021/08/07 12:40:56;;;;;;;7.18;2.95;;;;;;;;;;4861896;29;20033;-82
2021/08/07 12:43:31;;;;;;;6.65;3.35;;;;;;;;;;4861427;29;20110;-81
2021/08/07 12:46:04;;;;;;;6.40;2.97;;;;;;;;;;4861702;29;20528;-82
2021/08/07 12:48:45;;;;;;;7.38;3.63;;;;;;;;;;4861752;29;20606;-82
2021/08/07 12:51:11;;;;;;;8.88;3.33;;;;;;;;;;4860223;29;20382;-82
2021/08/07 12:53:45;;;;;;;9.43;3.60;;;;;;;;;;4861484;29;20104;-81
2021/08/07 12:56:11;;;;;;;5.80;3.22;;;;;;;;;;4861560;29;20477;-82
2021/08/07 12:58:37;;;;;;;7.03;3.75;;;;;;;;;;4861623;29;20073;-82
2021/08/07 13:01:13;;;;;;;5.90;3.38;;;;;;;;;;4861650;29;20054;-91
2021/08/07 13:04:01;;;;;;;5.78;3.47;;;;;;;;;;4854075;29;20041;-81
2021/08/07 13:06:29;;;;;;;5.43;3.45;;;;;;;;;;4827195;29;20085;-82
2021/08/07 13:08:56;;;;;;;6.18;3.55;;;;;;;;;;4842988;29;20033;-82
2021/08/07 13:11:24;;;;;;;4.88;3.10;;;;;;;;;;4826677;29;20034;-83
2021/08/07 13:13:55;;;;;;;5.47;3.35;;;;;;;;;;4842743;29;20493;-81
2021/08/07 13:16:40;;;;;;;4.57;2.97;;;;;;;;;;4842820;29;20037;-82
2021/08/07 13:19:20;;;;;;;4.25;3.10;;;;;;;;;;4841519;29;20049;-81
2021/08/07 13:21:49;;;;;;;4.60;2.70;;;;;;;;;;4842966;29;20030;-81
2021/08/07 13:24:35;;;;;;;5.60;2.63;;;;;;;;;;4826600;29;20034;-82
2021/08/07 13:27:04;;;;;;;6.00;2.67;;;;;;;;;;4842953;29;20030;-82
2021/08/07 13:29:29;;;;;;;5.43;2.97;;;;;;;;;;4843311;29;20034;-81
2021/08/07 13:31:56;;;;;;;7.97;2.95;;;;;;;;;;4843005;29;20214;-80
2021/08/07 13:34:26;;;;;;;5.13;3.20;;;;;;;;;;4842809;29;20026;-80
2021/08/07 13:36:52;;;;;;;5.55;3.13;;;;;;;;;;4847446;29;20116;-81
2021/08/07 13:39:17;;;;;;;5.95;4.15;;;;;;;;;;4847702;29;20162;-81
2021/08/07 13:41:44;;;;;;;8.10;3.30;;;;;;;;;;4842739;29;20059;-82
2021/08/07 13:44:10;;;;;;;8.73;3.55;;;;;;;;;;4847535;29;20038;-81
2021/08/07 13:46:35;;;;;;;5.90;3.75;;;;;;;;;;4861998;29;20033;-84
2021/08/07 13:49:02;;;;;;;4.60;3.20;;;;;;;;;;4854745;29;20030;-82
2021/08/07 13:51:28;;;;;;;3.78;3.10;;;;;;;;;;4859595;29;20480;-83
2021/08/07 13:53:53;;;;;;;7.28;2.70;;;;;;;;;;4864538;29;20031;-81
2021/08/07 13:56:18;;;;;;;5.38;2.97;;;;;;;;;;4864592;29;20041;-82
2021/08/07 13:58:44;;;;;;;4.80;2.80;;;;;;;;;;4865563;29;20029;-88
2021/08/07 14:01:09;;;;;;;3.22;2.92;;;;;;;;;;4866222;29;20034;-92
2021/08/07 14:03:35;;;;;;;8.45;3.55;;;;;;;;;;4862823;29;20033;-82
2021/08/07 14:06:03;;;;;;;6.38;4.05;;;;;;;;;;4858602;29;20113;-79
2021/08/07 14:08:30;;;;;;;4.80;2.92;;;;;;;;;;4852379;29;20041;-85
2021/08/07 14:10:55;;;;;;;3.97;2.83;;;;;;;;;;4850163;29;20056;-84
2021/08/07 14:13:21;;;;;;;6.25;3.00;;;;;;;;;;4846410;29;20514;-81
2021/08/07 14:15:46;;;;;;;3.35;2.80;;;;;;;;;;4845758;29;20121;-83
2021/08/07 14:18:12;;;;;;;5.68;3.00;;;;;;;;;;4845655;29;20497;-79
2021/08/07 14:20:38;;;;;;;6.07;3.08;;;;;;;;;;4846217;29;20030;-88
2021/08/07 14:23:04;;;;;;;4.55;2.85;;;;;;;;;;4845859;29;20032;-78
2021/08/07 14:25:29;;;;;;;5.13;2.83;;;;;;;;;;4846072;29;20033;-87
2021/08/07 14:27:56;;;;;;;3.47;2.72;;;;;;;;;;4837460;29;20085;-86
2021/08/07 14:30:22;;;;;;;5.90;2.83;;;;;;;;;;4846473;29;20120;-81
2021/08/07 14:32:48;;;;;;;5.85;3.05;;;;;;;;;;4864033;29;20097;-85
2021/08/07 14:35:13;;;;;;;5.50;2.72;;;;;;;;;;4864218;29;20544;-86
2021/08/07 14:37:38;;;;;;;6.70;2.65;;;;;;;;;;4862838;29;20422;-85
2021/08/07 17:00:26;;;;;;;7.75;4.53;;;;;;;;;;4968457;23;20052;-92
2021/08/07 17:02:53;;;;;;;5.63;4.15;;;;;;;;;;4919347;29;20037;-89
2021/08/07 17:05:18;;;;;;;6.68;4.30;;;;;;;;;;4903282;29;20048;-95
2021/08/07 17:07:44;;;;;;;5.57;5.07;;;;;;;;;;4918015;29;20039;-85
2021/08/07 17:10:11;;;;;;;10.48;6.05;;;;;;;;;;4898909;29;20032;-83
2021/08/07 17:12:36;;;;;;;7.97;4.35;;;;;;;;;;4914533;29;20079;-86
2021/08/07 17:15:03;;;;;;;9.38;4.43;;;;;;;;;;4899345;29;20119;-83
2021/08/07 17:17:28;;;;;;;7.30;4.20;;;;;;;;;;4902631;29;20039;-81
2021/08/07 17:19:54;;;;;;;7.07;5.35;;;;;;;;;;4921103;29;20028;-84
2021/08/07 17:22:20;;;;;;;5.57;3.88;;;;;;;;;;4922434;29;20107;-91
2021/08/07 17:24:46;;;;;;;5.40;4.90;;;;;;;;;;4923187;29;20467;-89
2021/08/07 17:27:11;;;;;;;7.55;5.07;;;;;;;;;;4909040;29;20029;-84
2021/08/07 17:29:37;;;;;;;7.38;4.50;;;;;;;;;;4902776;29;20400;-82
2021/08/07 17:32:02;;;;;;;5.65;4.28;;;;;;;;;;4902228;29;20036;-83
2021/08/07 17:34:31;;;;;;;5.63;4.57;;;;;;;;;;4902328;29;20460;-78
2021/08/07 17:36:57;;;;;;;5.22;4.57;;;;;;;;;;4902106;29;20087;-78
2021/08/07 17:39:22;;;;;;;6.45;4.85;;;;;;;;;;4901814;29;20076;-78
2021/08/07 17:41:48;;;;;;;6.15;4.68;;;;;;;;;;4901823;29;20051;-78
2021/08/07 17:44:13;;;;;;;5.80;4.45;;;;;;;;;;4902009;29;20032;-78
2021/08/07 17:46:39;;;;;;;5.72;5.10;;;;;;;;;;4901741;29;20388;-80
2021/08/07 17:49:04;;;;;;;5.63;4.32;;;;;;;;;;4901985;29;20380;-79
2021/08/07 17:51:30;;;;;;;8.93;4.15;;;;;;;;;;4901951;29;20063;-82
2021/08/07 17:53:55;;;;;;;5.70;4.20;;;;;;;;;;4901502;29;20050;-80
2021/08/07 17:56:20;;;;;;;9.07;4.38;;;;;;;;;;4901393;29;20028;-79
2021/08/07 17:58:50;;;;;;;4.50;3.53;;;;;;;;;;4903349;29;20471;-74
2021/08/07 18:01:18;;;;;;;8.63;4.47;;;;;;;;;;4913052;29;20518;-75
2021/08/07 18:03:45;;;;;;;5.88;4.22;;;;;;;;;;4905505;29;20032;-76
2021/08/07 18:06:11;;;;;;;4.78;4.28;;;;;;;;;;4901486;29;20037;-76
2021/08/07 18:08:37;;;;;;;7.68;3.90;;;;;;;;;;4920191;29;20415;-77
2021/08/07 18:11:03;;;;;;;8.65;4.88;;;;;;;;;;4920358;29;20032;-76
2021/08/07 18:13:28;;;;;;;7.07;4.40;;;;;;;;;;4919946;29;20058;-77
2021/08/07 18:15:53;;;;;;;6.78;4.13;;;;;;;;;;4910569;29;20029;-79
2021/08/07 18:18:20;;;;;;;6.25;4.45;;;;;;;;;;4900352;29;20045;-79
2021/08/07 18:20:46;;;;;;;8.07;4.50;;;;;;;;;;4899490;29;20044;-79
2021/08/07 18:23:15;;;;;;;7.65;4.60;;;;;;;;;;4903664;29;20084;-79
2021/08/07 18:25:40;;;;;;;7.43;4.38;;;;;;;;;;4911246;29;20032;-79
2021/08/07 18:28:06;;;;;;;7.32;4.18;;;;;;;;;;4908060;29;20029;-79
2021/08/07 18:30:31;;;;;;;6.13;4.07;;;;;;;;;;4899558;29;20532;-78
2021/08/07 18:32:57;;;;;;;8.82;4.50;;;;;;;;;;4907088;29;20021;-79
2021/08/07 18:35:22;;;;;;;4.78;4.20;;;;;;;;;;4900673;29;20032;-80
2021/08/07 18:37:48;;;;;;;6.00;4.50;;;;;;;;;;4900669;29;20432;-78
2021/08/07 18:40:13;;;;;;;6.57;4.38;;;;;;;;;;4907115;29;20079;-82
2021/08/07 18:42:39;;;;;;;5.72;4.35;;;;;;;;;;4922794;29;20032;-82
2021/08/07 18:45:05;;;;;;;8.75;4.68;;;;;;;;;;4921798;29;20036;-82
2021/08/07 18:47:31;;;;;;;8.55;5.78;;;;;;;;;;4921722;29;20115;-83
2021/08/07 18:49:57;;;;;;;8.95;7.15;;;;;;;;;;4919379;29;20580;-83
2021/08/07 18:52:22;;;;;;;11.73;6.95;;;;;;;;;;4919340;29;20127;-83
2021/08/07 18:54:48;;;;;;;9.43;6.13;;;;;;;;;;4902350;29;20082;-84
2021/08/07 18:57:14;;;;;;;7.68;4.15;;;;;;;;;;4913512;29;20029;-83
2021/08/07 18:59:39;;;;;;;7.18;4.47;;;;;;;;;;4900398;29;20036;-83
2021/08/07 19:02:05;;;;;;;7.72;4.70;;;;;;;;;;4900453;29;20060;-82
2021/08/07 19:04:30;;;;;;;8.30;4.85;;;;;;;;;;4900169;29;20045;-82
2021/08/07 19:06:56;;;;;;;7.13;4.20;;;;;;;;;;4900056;29;20893;-82
2021/08/07 19:09:21;;;;;;;5.47;4.30;;;;;;;;;;4883386;29;20116;-82
2021/08/07 19:11:46;;;;;;;9.60;4.35;;;;;;;;;;4900316;29;20111;-83
2021/08/07 19:14:12;;;;;;;7.95;4.93;;;;;;;;;;4900009;29;20028;-83
2021/08/07 19:16:38;;;;;;;7.20;4.70;;;;;;;;;;4883161;29;20489;-82
2021/08/07 19:19:03;;;;;;;5.25;4.75;;;;;;;;;;4900238;29;20029;-82
2021/08/07 19:21:28;;;;;;;8.57;4.57;;;;;;;;;;4899916;29;20511;-82
2021/08/07 19:23:54;;;;;;;9.93;5.40;;;;;;;;;;4900031;29;20035;-83
2021/08/07 19:26:20;;;;;;;11.73;4.25;;;;;;;;;;4899578;29;20032;-82
2021/08/07 19:28:48;;;;;;;7.57;4.15;;;;;;;;;;4899869;29;20032;-82
2021/08/07 19:31:15;;;;;;;4.73;4.27;;;;;;;;;;4900022;29;20025;-82
2021/08/07 19:33:41;;;;;;;6.47;4.80;;;;;;;;;;4899785;29;20761;-83
2021/08/07 19:36:06;;;;;;;7.47;4.88;;;;;;;;;;4899890;29;20123;-83
2021/08/07 19:38:32;;;;;;;7.65;4.80;;;;;;;;;;4899714;29;20068;-82
2021/08/07 19:40:58;;;;;;;5.32;4.82;;;;;;;;;;4899463;29;20104;-79
2021/08/07 19:43:23;;;;;;;10.25;4.70;;;;;;;;;;4899672;29;20025;-78
2021/08/07 19:45:49;;;;;;;7.82;5.00;;;;;;;;;;4882953;29;20032;-82
2021/08/07 19:48:14;;;;;;;6.38;4.50;;;;;;;;;;4899747;29;20021;-79
2021/08/07 19:50:40;;;;;;;8.35;5.07;;;;;;;;;;4882819;29;20043;-82
2021/08/07 19:53:05;;;;;;;8.07;4.60;;;;;;;;;;4899397;29;20027;-81
2021/08/07 19:55:31;;;;;;;8.90;4.82;;;;;;;;;;4899594;29;20028;-80
2021/08/07 19:57:56;;;;;;;12.50;4.88;;;;;;;;;;4899298;29;20056;-81
2021/08/07 20:00:23;;;;;;;9.13;5.70;;;;;;;;;;4899220;29;20036;-81
2021/08/07 20:02:49;;;;;;;8.40;4.85;;;;;;;;;;4899339;29;20036;-80
2021/08/07 20:05:14;;;;;;;9.15;4.53;;;;;;;;;;4882314;29;20028;-80
2021/08/07 20:07:40;;;;;;;18.10;12.57;;;;;;;;;;4899168;29;20361;-80
2021/08/07 20:10:06;;;;;;;12.25;6.70;;;;;;;;;;4899100;29;20029;-80
2021/08/07 20:12:31;;;;;;;10.25;5.00;;;;;;;;;;4882505;29;20043;-80
2021/08/07 20:14:57;;;;;;;6.55;4.57;;;;;;;;;;4899134;29;20028;-80
2021/08/07 20:17:25;;;;;;;7.07;4.93;;;;;;;;;;4899078;29;20412;-80
2021/08/07 20:19:52;;;;;;;7.57;4.27;;;;;;;;;;4882199;29;20029;-80
2021/08/07 20:22:17;;;;;;;13.98;4.88;;;;;;;;;;4899291;29;20036;-80
2021/08/07 20:24:43;;;;;;;6.22;4.90;;;;;;;;;;4899077;29;20029;-80
2021/08/07 20:27:08;;;;;;;6.80;4.60;;;;;;;;;;4898931;29;20033;-80
2021/08/07 20:29:34;;;;;;;8.63;5.45;;;;;;;;;;4898760;29;20499;-80
2021/08/07 20:31:59;;;;;;;6.93;4.93;;;;;;;;;;4898832;29;20064;-81
2021/08/07 20:34:25;;;;;;;6.63;4.75;;;;;;;;;;4898875;29;20056;-81
2021/08/07 20:36:50;;;;;;;6.00;4.45;;;;;;;;;;4898806;29;20025;-81
2021/08/07 20:39:16;;;;;;;7.05;4.65;;;;;;;;;;4899023;29;20088;-81
2021/08/07 20:41:41;;;;;;;6.22;4.30;;;;;;;;;;4899090;29;20029;-80
2021/08/07 20:44:07;;;;;;;7.72;4.75;;;;;;;;;;4898755;29;20040;-80
2021/08/07 20:46:33;;;;;;;10.82;4.75;;;;;;;;;;4898593;29;20540;-80
2021/08/07 20:48:58;;;;;;;5.60;4.55;;;;;;;;;;4898773;29;20037;-80
2021/08/07 20:51:24;;;;;;;9.70;5.20;;;;;;;;;;4898589;29;20029;-80
2021/08/07 20:53:49;;;;;;;10.98;5.43;;;;;;;;;;4897942;29;20380;-80
2021/08/07 20:56:15;;;;;;;7.38;5.28;;;;;;;;;;4898353;29;20036;-80
2021/08/07 20:58:40;;;;;;;7.35;5.40;;;;;;;;;;4898753;29;20028;-79
2021/08/07 21:01:06;;;;;;;9.93;5.20;;;;;;;;;;4898343;29;20484;-80
2021/08/07 21:03:33;;;;;;;9.93;4.75;;;;;;;;;;4898280;29;20468;-80
2021/08/07 21:05:58;;;;;;;8.55;4.82;;;;;;;;;;4898525;29;20495;-80
2021/08/07 21:08:25;;;;;;;9.40;4.90;;;;;;;;;;4898371;29;20061;-80
2021/08/07 21:10:50;;;;;;;10.15;4.68;;;;;;;;;;4898432;29;20124;-80
2021/08/07 21:13:16;;;;;;;13.18;4.97;;;;;;;;;;4898474;29;20519;-81
2021/08/07 21:15:43;;;;;;;10.68;4.88;;;;;;;;;;4881518;29;20033;-80
2021/08/07 21:18:08;;;;;;;5.88;5.03;;;;;;;;;;4898283;29;20032;-80
2021/08/07 21:20:34;;;;;;;8.02;4.72;;;;;;;;;;4898600;29;20445;-77
2021/08/07 21:22:59;;;;;;;8.13;4.47;;;;;;;;;;4898299;29;20563;-80
2021/08/07 21:25:25;;;;;;;11.32;4.75;;;;;;;;;;4898459;29;20025;-79
2021/08/07 21:27:50;;;;;;;6.85;4.45;;;;;;;;;;4898245;29;20036;-82
2021/08/07 21:30:17;;;;;;;7.32;4.80;;;;;;;;;;4881521;29;20116;-80
2021/08/07 21:32:44;;;;;;;5.97;4.35;;;;;;;;;;4881125;29;20028;-81
2021/08/07 21:35:11;;;;;;;8.82;4.65;;;;;;;;;;4898379;29;20478;-80
2021/08/07 21:37:37;;;;;;;7.32;4.75;;;;;;;;;;4898113;29;20479;-80
2021/08/07 21:40:04;;;;;;;5.88;4.88;;;;;;;;;;4898261;29;20113;-80
